createdAt,value
2022-08-03T00:00:04.130Z,95334.59
2022-08-03T00:01:04.148Z,95330.73
2022-08-03T00:02:04.118Z,95330.29
2022-08-03T00:03:04.142Z,95330.56
2022-08-03T00:04:04.104Z,95330.61
2022-08-03T00:05:04.097Z,95328.03
2022-08-03T00:06:05.226Z,95327.05
2022-08-03T00:07:04.066Z,95328.70
2022-08-03T00:08:04.061Z,95327.12
2022-08-03T00:09:04.048Z,95327.47
2022-08-03T00:10:04.045Z,95329.17
2022-08-03T00:11:04.049Z,95332.02
2022-08-03T00:12:04.030Z,95331.70
2022-08-03T00:13:04.023Z,95327.71
2022-08-03T00:14:03.999Z,95328.12
2022-08-03T00:15:03.990Z,95328.89
2022-08-03T00:16:03.981Z,95329.99
2022-08-03T00:17:03.995Z,95332.31
2022-08-03T00:18:03.974Z,95327.45
2022-08-03T00:19:03.976Z,95329.25
2022-08-03T00:20:03.950Z,95327.61
2022-08-03T00:21:03.947Z,95330.06
2022-08-03T00:22:03.946Z,95333.38
2022-08-03T00:23:03.957Z,95323.55
2022-08-03T00:24:03.927Z,95324.84
2022-08-03T00:25:03.918Z,95328.89
2022-08-03T00:26:03.895Z,95324.55
2022-08-03T00:27:03.896Z,95323.32
2022-08-03T00:28:03.876Z,95329.55
2022-08-03T00:29:04.170Z,95323.59
2022-08-03T00:30:03.882Z,95326.62
2022-08-03T00:31:03.857Z,95319.53
2022-08-03T00:32:03.846Z,95323.16
2022-08-03T00:33:03.889Z,95320.91
2022-08-03T00:34:04.280Z,95325.05
2022-08-03T00:35:08.124Z,95318.32
2022-08-03T00:36:03.824Z,95317.21
2022-08-03T00:37:03.812Z,95316.41
2022-08-03T00:38:03.804Z,95318.59
2022-08-03T00:39:03.790Z,95321.80
2022-08-03T00:40:03.793Z,95312.95
2022-08-03T00:41:03.791Z,95318.40
2022-08-03T00:42:03.762Z,95320.20
2022-08-03T00:43:03.766Z,95314.91
2022-08-03T00:44:03.745Z,95316.75
2022-08-03T00:45:03.735Z,95316.06
2022-08-03T00:46:03.725Z,95317.00
2022-08-03T00:47:03.744Z,95313.36
2022-08-03T00:48:03.718Z,95313.09
2022-08-03T00:49:03.870Z,95320.50
2022-08-03T00:50:03.700Z,95315.82
2022-08-03T00:51:03.701Z,95313.83
2022-08-03T00:52:09.542Z,95310.45
2022-08-03T00:53:03.697Z,95312.78
2022-08-03T00:54:03.671Z,95310.71
2022-08-03T00:55:03.648Z,95311.12
2022-08-03T00:56:03.654Z,95309.21
2022-08-03T00:57:03.656Z,95304.00
2022-08-03T00:58:03.633Z,95306.31
2022-08-03T00:59:03.654Z,95308.20
2022-08-03T01:00:03.610Z,95305.19
2022-08-03T01:01:03.669Z,95307.17
2022-08-03T01:02:03.605Z,95307.41
2022-08-03T01:03:03.597Z,95311.11
2022-08-03T01:04:03.573Z,95306.61
2022-08-03T01:05:03.595Z,95305.05
2022-08-03T01:06:03.566Z,95303.95
2022-08-03T01:07:03.552Z,95305.09
2022-08-03T01:08:03.537Z,95306.72
2022-08-03T01:09:03.546Z,95305.34
2022-08-03T01:10:03.529Z,95298.72
2022-08-03T01:11:03.566Z,95300.69
2022-08-03T01:12:03.505Z,95303.08
2022-08-03T01:13:03.499Z,95307.66
2022-08-03T01:14:18.227Z,95308.34
2022-08-03T01:15:03.483Z,95309.52
2022-08-03T01:16:03.487Z,95303.51
2022-08-03T01:17:03.483Z,95303.57
2022-08-03T01:18:03.463Z,95300.02
2022-08-03T01:19:03.450Z,95297.34
2022-08-03T01:20:03.433Z,95300.61
2022-08-03T01:21:03.442Z,95308.30
2022-08-03T01:22:03.417Z,95305.27
2022-08-03T01:23:03.431Z,95307.23
2022-08-03T01:24:03.414Z,95304.28
2022-08-03T01:25:03.400Z,95304.11
2022-08-03T01:26:03.394Z,95307.28
2022-08-03T01:27:03.518Z,95307.71
2022-08-03T01:28:03.362Z,95307.17
2022-08-03T01:29:03.397Z,95308.38
2022-08-03T01:30:03.352Z,95303.77
2022-08-03T01:31:03.361Z,95302.99
2022-08-03T01:32:59.599Z,95303.93
2022-08-03T01:33:03.607Z,95312.27
2022-08-03T01:34:03.327Z,95310.52
2022-08-03T01:35:03.342Z,95308.53
2022-08-03T01:36:03.311Z,95308.34
2022-08-03T01:37:03.295Z,95308.84
2022-08-03T01:38:03.289Z,95313.80
2022-08-03T01:39:03.276Z,95307.28
2022-08-03T01:40:03.270Z,95309.16
2022-08-03T01:41:03.268Z,95310.09
2022-08-03T01:42:03.278Z,95304.82
2022-08-03T01:43:03.262Z,95304.99
2022-08-03T01:44:29.965Z,95311.30
2022-08-03T01:45:03.228Z,95308.52
2022-08-03T01:46:03.210Z,95306.67
2022-08-03T01:47:03.225Z,95306.49
2022-08-03T01:48:03.204Z,95304.88
2022-08-03T01:49:09.127Z,95305.02
2022-08-03T01:50:03.184Z,95305.59
2022-08-03T01:51:03.185Z,95307.56
2022-08-03T01:52:05.369Z,95305.02
2022-08-03T01:53:03.186Z,95303.13
2022-08-03T01:54:03.156Z,95304.09
2022-08-03T01:55:03.133Z,95304.34
2022-08-03T01:56:03.137Z,95297.59
2022-08-03T01:57:03.125Z,95301.91
2022-08-03T01:58:05.720Z,95302.59
2022-08-03T01:59:03.105Z,95300.84
2022-08-03T02:00:03.087Z,95300.35
2022-08-03T02:01:03.150Z,95293.73
2022-08-03T02:02:15.649Z,95296.14
2022-08-03T02:03:03.082Z,95295.45
2022-08-03T02:04:03.089Z,95296.91
2022-08-03T02:05:03.085Z,95304.05
2022-08-03T02:06:55.591Z,95298.83
2022-08-03T02:07:03.547Z,95299.15
2022-08-03T02:08:03.019Z,95302.82
2022-08-03T02:09:03.034Z,95298.19
2022-08-03T02:10:03.013Z,95301.39
2022-08-03T02:11:03.030Z,95304.22
2022-08-03T02:12:02.994Z,95303.86
2022-08-03T02:13:02.981Z,95300.73
2022-08-03T02:14:02.973Z,95303.17
2022-08-03T02:15:02.961Z,95307.03
2022-08-03T02:16:02.965Z,95306.95
2022-08-03T02:17:02.978Z,95297.97
2022-08-03T02:18:02.932Z,95302.20
2022-08-03T02:19:02.932Z,95299.42
2022-08-03T02:20:02.928Z,95298.48
2022-08-03T02:21:05.411Z,95304.34
2022-08-03T02:22:02.916Z,95299.87
2022-08-03T02:23:02.927Z,95298.00
2022-08-03T02:24:02.883Z,95299.20
2022-08-03T02:25:02.892Z,95298.47
2022-08-03T02:26:02.865Z,95293.96
2022-08-03T02:27:02.871Z,95293.17
2022-08-03T02:28:02.860Z,95299.12
2022-08-03T02:29:02.861Z,95295.93
2022-08-03T02:30:02.902Z,95296.01
2022-08-03T02:31:02.840Z,95289.98
2022-08-03T02:32:02.809Z,95295.69
2022-08-03T02:33:02.808Z,95290.81
2022-08-03T02:34:02.798Z,95291.70
2022-08-03T02:35:02.833Z,95289.91
2022-08-03T02:36:02.799Z,95285.31
2022-08-03T02:37:02.779Z,95291.27
2022-08-03T02:38:02.776Z,95286.76
2022-08-03T02:39:02.769Z,95284.37
2022-08-03T02:40:02.741Z,95281.10
2022-08-03T02:41:02.752Z,95291.02
2022-08-03T02:42:03.273Z,95288.41
2022-08-03T02:43:02.723Z,95281.85
2022-08-03T02:44:06.938Z,95283.04
2022-08-03T02:45:02.717Z,95281.54
2022-08-03T02:46:02.706Z,95282.27
2022-08-03T02:47:02.717Z,95276.84
2022-08-03T02:48:02.691Z,95279.08
2022-08-03T02:49:41.137Z,95280.36
2022-08-03T02:50:02.725Z,95281.14
2022-08-03T02:51:02.669Z,95278.53
2022-08-03T02:52:02.643Z,95284.24
2022-08-03T02:53:02.657Z,95284.36
2022-08-03T02:54:02.631Z,95282.79
2022-08-03T02:55:02.631Z,95280.41
2022-08-03T02:56:02.608Z,95283.64
2022-08-03T02:57:02.612Z,95283.16
2022-08-03T02:58:02.603Z,95279.34
2022-08-03T02:59:02.603Z,95284.69
2022-08-03T03:00:02.584Z,95276.55
2022-08-03T03:01:02.606Z,95275.84
2022-08-03T03:02:02.560Z,95279.63
2022-08-03T03:03:02.556Z,95281.14
2022-08-03T03:04:02.555Z,95271.50
2022-08-03T03:05:56.042Z,95274.80
2022-08-03T03:06:05.609Z,95278.31
2022-08-03T03:07:03.724Z,95277.87
2022-08-03T03:08:02.504Z,95278.66
2022-08-03T03:09:02.503Z,95281.28
2022-08-03T03:10:02.508Z,95283.08
2022-08-03T03:11:02.494Z,95279.79
2022-08-03T03:12:02.476Z,95278.55
2022-08-03T03:13:02.465Z,95279.66
2022-08-03T03:14:02.456Z,95277.98
2022-08-03T03:15:02.449Z,95272.55
2022-08-03T03:16:02.436Z,95274.47
2022-08-03T03:17:02.467Z,95278.84
2022-08-03T03:18:02.439Z,95277.58
2022-08-03T03:19:02.408Z,95280.91
2022-08-03T03:20:02.399Z,95280.91
2022-08-03T03:21:02.403Z,95278.60
2022-08-03T03:22:02.390Z,95277.12
2022-08-03T03:23:02.389Z,95285.22
2022-08-03T03:24:02.371Z,95281.09
2022-08-03T03:25:02.365Z,95284.36
2022-08-03T03:26:02.392Z,95282.98
2022-08-03T03:27:02.339Z,95284.80
2022-08-03T03:28:02.335Z,95286.19
2022-08-03T03:29:02.355Z,95281.77
2022-08-03T03:30:02.321Z,95279.78
2022-08-03T03:31:02.305Z,95283.67
2022-08-03T03:32:02.578Z,95282.47
2022-08-03T03:33:02.300Z,95287.88
2022-08-03T03:34:02.286Z,95287.09
2022-08-03T03:35:02.305Z,95286.20
2022-08-03T03:36:02.264Z,95283.84
2022-08-03T03:37:02.255Z,95287.45
2022-08-03T03:38:02.261Z,95285.97
2022-08-03T03:39:15.676Z,95288.04
2022-08-03T03:40:02.250Z,95283.22
2022-08-03T03:41:02.250Z,95283.98
2022-08-03T03:42:02.218Z,95287.16
2022-08-03T03:43:02.197Z,95288.09
2022-08-03T03:44:02.211Z,95290.67
2022-08-03T03:45:02.187Z,95286.86
2022-08-03T03:46:02.178Z,95287.38
2022-08-03T03:47:02.193Z,95291.41
2022-08-03T03:48:02.170Z,95291.72
2022-08-03T03:49:02.187Z,95290.84
2022-08-03T03:50:02.150Z,95288.41
2022-08-03T03:51:02.153Z,95292.09
2022-08-03T03:52:02.143Z,95289.38
2022-08-03T03:53:02.146Z,95289.50
2022-08-03T03:54:02.113Z,95288.09
2022-08-03T03:55:02.118Z,95289.72
2022-08-03T03:56:03.083Z,95293.38
2022-08-03T03:57:02.096Z,95289.59
2022-08-03T03:58:02.087Z,95295.36
2022-08-03T03:59:02.353Z,95297.78
2022-08-03T04:00:02.076Z,95296.40
2022-08-03T04:01:02.162Z,95298.75
2022-08-03T04:02:02.059Z,95297.82
2022-08-03T04:03:02.039Z,95301.12
2022-08-03T04:04:02.040Z,95295.66
2022-08-03T04:05:02.036Z,95298.92
2022-08-03T04:06:02.022Z,95303.33
2022-08-03T04:07:02.012Z,95295.55
2022-08-03T04:08:02.001Z,95305.16
2022-08-03T04:09:01.980Z,95300.96
2022-08-03T04:10:14.058Z,95296.94
2022-08-03T04:11:01.992Z,95301.33
2022-08-03T04:12:01.973Z,95296.55
2022-08-03T04:13:01.961Z,95301.98
2022-08-03T04:14:02.286Z,95297.30
2022-08-03T04:15:01.930Z,95292.52
2022-08-03T04:16:01.934Z,95300.53
2022-08-03T04:17:01.946Z,95299.47
2022-08-03T04:18:01.915Z,95301.66
2022-08-03T04:19:01.923Z,95300.28
2022-08-03T04:20:01.897Z,95300.02
2022-08-03T04:21:01.873Z,95301.88
2022-08-03T04:22:01.885Z,95295.61
2022-08-03T04:23:01.894Z,95302.91
2022-08-03T04:24:01.944Z,95305.66
2022-08-03T04:25:01.844Z,95303.41
2022-08-03T04:26:01.856Z,95306.30
2022-08-03T04:27:01.841Z,95307.20
2022-08-03T04:28:28.343Z,95304.72
2022-08-03T04:29:01.828Z,95308.75
2022-08-03T04:30:01.820Z,95307.27
2022-08-03T04:31:01.808Z,95303.81
2022-08-03T04:32:02.073Z,95303.12
2022-08-03T04:33:01.789Z,95305.70
2022-08-03T04:34:01.782Z,95308.31
2022-08-03T04:35:01.779Z,95308.25
2022-08-03T04:36:03.635Z,95309.08
2022-08-03T04:37:01.754Z,95307.78
2022-08-03T04:38:01.753Z,95311.50
2022-08-03T04:39:01.722Z,95314.08
2022-08-03T04:40:01.721Z,95312.16
2022-08-03T04:41:01.733Z,95313.43
2022-08-03T04:42:07.644Z,95321.30
2022-08-03T04:43:01.695Z,95317.86
2022-08-03T04:44:01.700Z,95310.95
2022-08-03T04:45:02.028Z,95317.66
2022-08-03T04:46:01.693Z,95318.25
2022-08-03T04:47:01.664Z,95319.92
2022-08-03T04:48:02.936Z,95317.00
2022-08-03T04:49:01.662Z,95322.02
2022-08-03T04:50:01.637Z,95322.16
2022-08-03T04:51:01.623Z,95323.73
2022-08-03T04:52:01.616Z,95320.22
2022-08-03T04:53:01.637Z,95321.21
2022-08-03T04:54:01.597Z,95317.45
2022-08-03T04:55:01.590Z,95319.97
2022-08-03T04:56:01.603Z,95319.56
2022-08-03T04:57:01.586Z,95318.30
2022-08-03T04:58:01.572Z,95314.45
2022-08-03T04:59:01.559Z,95316.07
2022-08-03T05:00:03.348Z,95322.40
2022-08-03T05:01:01.544Z,95320.09
2022-08-03T05:02:01.637Z,95319.09
2022-08-03T05:03:01.520Z,95316.59
2022-08-03T05:04:01.528Z,95320.11
2022-08-03T05:05:01.530Z,95322.50
2022-08-03T05:06:10.979Z,95323.14
2022-08-03T05:07:11.587Z,95322.28
2022-08-03T05:08:01.483Z,95323.94
2022-08-03T05:09:01.478Z,95324.33
2022-08-03T05:10:03.288Z,95326.66
2022-08-03T05:11:01.475Z,95326.30
2022-08-03T05:12:01.460Z,95322.55
2022-08-03T05:13:01.436Z,95324.07
2022-08-03T05:14:01.439Z,95322.70
2022-08-03T05:15:01.431Z,95322.25
2022-08-03T05:16:01.420Z,95323.40
2022-08-03T05:17:01.418Z,95322.81
2022-08-03T05:18:01.395Z,95320.17
2022-08-03T05:19:01.379Z,95324.69
2022-08-03T05:20:01.378Z,95322.67
2022-08-03T05:21:01.359Z,95328.77
2022-08-03T05:22:01.373Z,95325.69
2022-08-03T05:23:01.373Z,95327.23
2022-08-03T05:24:01.344Z,95327.47
2022-08-03T05:25:01.332Z,95329.27
2022-08-03T05:26:01.325Z,95333.25
2022-08-03T05:27:01.326Z,95332.20
2022-08-03T05:28:01.332Z,95334.34
2022-08-03T05:29:01.328Z,95337.75
2022-08-03T05:30:30.907Z,95341.64
2022-08-03T05:31:01.274Z,95344.00
2022-08-03T05:32:06.226Z,95339.36
2022-08-03T05:33:01.275Z,95341.31
2022-08-03T05:34:01.268Z,95351.58
2022-08-03T05:35:01.244Z,95344.97
2022-08-03T05:36:04.310Z,95340.72
2022-08-03T05:37:01.226Z,95340.22
2022-08-03T05:38:01.216Z,95339.50
2022-08-03T05:39:02.942Z,95341.41
2022-08-03T05:40:01.207Z,95345.20
2022-08-03T05:41:20.939Z,95342.17
2022-08-03T05:42:01.188Z,95344.94
2022-08-03T05:43:01.188Z,95343.24
2022-08-03T05:44:01.182Z,95341.09
2022-08-03T05:45:01.172Z,95343.70
2022-08-03T05:46:11.750Z,95336.89
2022-08-03T05:47:01.160Z,95347.16
2022-08-03T05:48:01.144Z,95335.27
2022-08-03T05:49:01.173Z,95345.62
2022-08-03T05:50:01.121Z,95338.47
2022-08-03T05:51:01.111Z,95340.67
2022-08-03T05:52:13.364Z,95339.66
2022-08-03T05:53:01.123Z,95343.77
2022-08-03T05:54:01.098Z,95343.06
2022-08-03T05:55:01.094Z,95345.88
2022-08-03T05:56:13.206Z,95342.05
2022-08-03T05:57:01.070Z,95350.46
2022-08-03T05:58:01.055Z,95346.27
2022-08-03T05:59:16.290Z,95336.71
2022-08-03T06:00:01.058Z,95342.36
2022-08-03T06:01:01.027Z,95338.06
2022-08-03T06:02:01.139Z,95333.77
2022-08-03T06:03:01.022Z,95335.36
2022-08-03T06:04:01.019Z,95333.30
2022-08-03T06:05:01.008Z,95336.16
2022-08-03T06:06:00.991Z,95336.95
2022-08-03T06:07:00.978Z,95334.12
2022-08-03T06:08:00.984Z,95331.97
2022-08-03T06:09:00.963Z,95331.03
2022-08-03T06:10:36.657Z,95332.16
2022-08-03T06:11:00.976Z,95332.73
2022-08-03T06:12:00.941Z,95330.19
2022-08-03T06:13:00.936Z,95330.13
2022-08-03T06:14:00.939Z,95328.81
2022-08-03T06:15:00.923Z,95333.80
2022-08-03T06:16:00.916Z,95326.06
2022-08-03T06:17:00.928Z,95323.31
2022-08-03T06:18:02.190Z,95328.39
2022-08-03T06:19:00.897Z,95326.94
2022-08-03T06:20:00.876Z,95328.62
2022-08-03T06:21:09.699Z,95330.66
2022-08-03T06:22:00.871Z,95326.61
2022-08-03T06:23:01.482Z,95330.78
2022-08-03T06:24:00.844Z,95333.77
2022-08-03T06:25:04.932Z,95332.55
2022-08-03T06:26:00.841Z,95329.30
2022-08-03T06:27:00.822Z,95336.23
2022-08-03T06:28:00.824Z,95329.23
2022-08-03T06:29:00.912Z,95332.38
2022-08-03T06:30:00.797Z,95333.58
2022-08-03T06:31:00.781Z,95334.22
2022-08-03T06:32:00.781Z,95336.09
2022-08-03T06:33:00.768Z,95329.06
2022-08-03T06:34:32.275Z,95337.52
2022-08-03T06:35:00.782Z,95334.48
2022-08-03T06:36:00.742Z,95335.09
2022-08-03T06:37:02.308Z,95328.17
2022-08-03T06:38:00.747Z,95329.62
2022-08-03T06:39:00.735Z,95330.34
2022-08-03T06:40:00.727Z,95331.84
2022-08-03T06:41:00.723Z,95332.80
2022-08-03T06:42:00.695Z,95334.11
2022-08-03T06:43:00.685Z,95335.28
2022-08-03T06:44:03.734Z,95336.77
2022-08-03T06:45:00.681Z,95335.54
2022-08-03T06:46:00.681Z,95339.64
2022-08-03T06:47:00.689Z,95337.39
2022-08-03T06:48:00.654Z,95336.09
2022-08-03T06:49:00.702Z,95333.41
2022-08-03T06:50:12.932Z,95335.06
2022-08-03T06:51:00.619Z,95336.03
2022-08-03T06:52:03.347Z,95337.59
2022-08-03T06:53:00.621Z,95337.44
2022-08-03T06:54:00.602Z,95335.53
2022-08-03T06:55:00.598Z,95339.73
2022-08-03T06:56:00.590Z,95338.88
2022-08-03T06:57:00.572Z,95338.19
2022-08-03T06:58:03.616Z,95337.94
2022-08-03T06:59:00.598Z,95339.60
2022-08-03T07:00:08.643Z,95342.20
2022-08-03T07:01:00.602Z,95336.64
2022-08-03T07:02:00.534Z,95337.28
2022-08-03T07:03:00.524Z,95339.44
2022-08-03T07:04:00.550Z,95340.05
2022-08-03T07:05:00.539Z,95341.10
2022-08-03T07:06:00.521Z,95340.49
2022-08-03T07:07:00.496Z,95340.00
2022-08-03T07:08:00.488Z,95337.56
2022-08-03T07:09:00.477Z,95339.56
2022-08-03T07:10:00.479Z,95340.88
2022-08-03T07:11:00.479Z,95340.73
2022-08-03T07:12:00.478Z,95342.99
2022-08-03T07:13:00.461Z,95341.16
2022-08-03T07:14:00.453Z,95338.98
2022-08-03T07:15:02.214Z,95343.06
2022-08-03T07:16:00.421Z,95347.39
2022-08-03T07:17:00.441Z,95342.02
2022-08-03T07:18:00.413Z,95340.71
2022-08-03T07:19:00.416Z,95343.50
2022-08-03T07:20:00.407Z,95337.75
2022-08-03T07:21:00.405Z,95337.41
2022-08-03T07:22:02.392Z,95338.11
2022-08-03T07:23:00.397Z,95339.15
2022-08-03T07:24:00.378Z,95342.02
2022-08-03T07:25:00.374Z,95343.85
2022-08-03T07:26:00.359Z,95341.92
2022-08-03T07:27:00.337Z,95344.95
2022-08-03T07:28:00.339Z,95343.48
2022-08-03T07:29:00.337Z,95338.52
2022-08-03T07:30:00.323Z,95337.75
2022-08-03T07:31:00.311Z,95339.31
2022-08-03T07:32:00.318Z,95336.62
2022-08-03T07:33:00.310Z,95339.56
2022-08-03T07:34:00.282Z,95342.59
2022-08-03T07:35:01.382Z,95341.91
2022-08-03T07:36:00.269Z,95344.80
2022-08-03T07:37:00.274Z,95341.02
2022-08-03T07:38:00.251Z,95345.20
2022-08-03T07:39:00.241Z,95346.05
2022-08-03T07:40:00.235Z,95343.81
2022-08-03T07:41:00.253Z,95345.27
2022-08-03T07:42:00.237Z,95341.70
2022-08-03T07:43:00.231Z,95339.96
2022-08-03T07:44:00.217Z,95344.14
2022-08-03T07:45:00.221Z,95344.67
2022-08-03T07:46:00.184Z,95340.20
2022-08-03T07:47:00.198Z,95345.79
2022-08-03T07:48:00.167Z,95340.38
2022-08-03T07:49:00.261Z,95337.14
2022-08-03T07:50:00.185Z,95341.82
2022-08-03T07:51:00.163Z,95339.56
2022-08-03T07:52:00.151Z,95344.07
2022-08-03T07:53:00.150Z,95341.70
2022-08-03T07:54:00.135Z,95336.74
2022-08-03T07:55:00.113Z,95330.28
2022-08-03T07:56:00.112Z,95328.44
2022-08-03T07:57:00.090Z,95329.92
2022-08-03T07:58:00.095Z,95327.66
2022-08-03T07:59:00.091Z,95327.92
2022-08-03T08:00:02.468Z,95326.12
2022-08-03T08:01:00.123Z,95331.14
2022-08-03T08:02:00.052Z,95329.73
2022-08-03T08:03:00.045Z,95330.58
2022-08-03T08:04:00.034Z,95323.41
2022-08-03T08:05:04.972Z,95323.04
2022-08-03T08:06:00.023Z,95328.61
2022-08-03T08:07:00.028Z,95329.39
2022-08-03T08:08:00.064Z,95323.12
2022-08-03T08:09:00.013Z,95324.52
2022-08-03T08:09:59.990Z,95329.11
2022-08-03T08:11:00.014Z,95325.86
2022-08-03T08:11:59.990Z,95332.36
2022-08-03T08:12:59.957Z,95330.23
2022-08-03T08:13:59.948Z,95330.84
2022-08-03T08:14:59.939Z,95330.76
2022-08-03T08:15:59.945Z,95333.08
2022-08-03T08:17:03.303Z,95329.51
2022-08-03T08:17:59.910Z,95333.95
2022-08-03T08:18:59.901Z,95327.04
2022-08-03T08:19:59.892Z,95330.52
2022-08-03T08:20:59.889Z,95328.05
2022-08-03T08:22:01.988Z,95328.92
2022-08-03T08:23:01.131Z,95325.44
2022-08-03T08:23:59.852Z,95327.06
2022-08-03T08:25:01.078Z,95323.66
2022-08-03T08:25:59.847Z,95328.36
2022-08-03T08:26:59.848Z,95327.98
2022-08-03T08:28:30.434Z,95323.97
2022-08-03T08:28:59.836Z,95324.45
2022-08-03T08:30:07.280Z,95326.95
2022-08-03T08:30:59.796Z,95321.11
2022-08-03T08:31:59.786Z,95322.73
2022-08-03T08:32:59.801Z,95319.33
2022-08-03T08:34:04.401Z,95323.30
2022-08-03T08:34:59.792Z,95322.33
2022-08-03T08:35:59.759Z,95318.30
2022-08-03T08:36:59.753Z,95322.55
2022-08-03T08:37:59.738Z,95325.69
2022-08-03T08:38:59.731Z,95320.47
2022-08-03T08:39:59.735Z,95319.51
2022-08-03T08:40:59.750Z,95321.21
2022-08-03T08:41:59.716Z,95317.63
2022-08-03T08:42:59.703Z,95326.48
2022-08-03T08:44:00.214Z,95321.25
2022-08-03T08:44:59.682Z,95321.69
2022-08-03T08:45:59.672Z,95323.25
2022-08-03T08:46:59.694Z,95323.56
2022-08-03T08:48:02.544Z,95327.22
2022-08-03T08:48:59.747Z,95319.10
2022-08-03T08:50:09.670Z,95326.25
2022-08-03T08:50:59.647Z,95321.33
2022-08-03T08:52:01.168Z,95327.25
2022-08-03T08:52:59.727Z,95322.28
2022-08-03T08:53:59.619Z,95321.36
2022-08-03T08:55:00.191Z,95325.98
2022-08-03T08:56:00.769Z,95321.92
2022-08-03T08:56:59.591Z,95316.82
2022-08-03T08:57:59.569Z,95314.34
2022-08-03T08:58:59.589Z,95316.24
2022-08-03T08:59:59.565Z,95316.99
2022-08-03T09:00:59.557Z,95316.02
2022-08-03T09:01:59.540Z,95311.01
2022-08-03T09:04:25.475Z,95310.70
2022-08-03T09:05:54.663Z,95313.57
2022-08-03T09:06:25.462Z,95314.05
2022-08-03T09:07:25.445Z,95317.48
2022-08-03T09:08:25.446Z,95321.28
2022-08-03T09:10:05.917Z,95318.83
2022-08-03T09:10:25.447Z,95317.04
2022-08-03T09:11:54.477Z,95316.42
2022-08-03T09:12:41.941Z,95317.72
2022-08-03T09:13:25.399Z,95318.06
2022-08-03T09:14:36.550Z,95317.52
2022-08-03T09:15:25.402Z,95317.48
2022-08-03T09:16:25.392Z,95316.65
2022-08-03T09:17:25.373Z,95321.76
2022-08-03T09:18:25.359Z,95318.17
2022-08-03T09:19:25.354Z,95320.09
2022-08-03T09:20:25.363Z,95317.14
2022-08-03T09:21:33.537Z,95319.05
2022-08-03T09:22:25.345Z,95321.36
2022-08-03T09:23:51.812Z,95318.56
2022-08-03T09:24:40.582Z,95323.42
2022-08-03T09:25:25.413Z,95321.66
2022-08-03T09:26:25.294Z,95322.84
2022-08-03T09:27:26.172Z,95325.62
2022-08-03T09:29:01.328Z,95317.59
2022-08-03T09:29:25.264Z,95317.94
2022-08-03T09:30:33.742Z,95320.21
2022-08-03T09:31:25.248Z,95319.00
2022-08-03T09:32:25.246Z,95315.77
2022-08-03T09:33:25.229Z,95316.54
2022-08-03T09:34:25.520Z,95318.89
2022-08-03T09:35:51.515Z,95317.89
2022-08-03T09:36:25.222Z,95315.25
2022-08-03T09:38:06.002Z,95315.86
2022-08-03T09:38:25.189Z,95321.22
2022-08-03T09:39:41.191Z,95317.30
2022-08-03T09:40:25.189Z,95320.22
2022-08-03T09:41:25.163Z,95319.84
2022-08-03T09:42:25.174Z,95321.44
2022-08-03T09:43:25.155Z,95318.86
2022-08-03T09:44:26.205Z,95316.52
2022-08-03T09:45:25.138Z,95314.30
2022-08-03T09:46:25.157Z,95321.09
2022-08-03T09:47:28.207Z,95321.15
2022-08-03T09:48:25.117Z,95318.88
2022-08-03T09:49:25.412Z,95320.73
2022-08-03T09:50:25.099Z,95323.52
2022-08-03T09:52:17.950Z,95322.23
2022-08-03T09:52:37.731Z,95324.62
2022-08-03T09:53:25.057Z,95320.95
2022-08-03T09:54:25.048Z,95323.09
2022-08-03T09:56:33.263Z,95320.02
2022-08-03T09:56:35.002Z,95322.93
2022-08-03T09:57:25.031Z,95315.90
2022-08-03T09:58:25.042Z,95318.49
2022-08-03T09:59:25.020Z,95312.23
2022-08-03T10:00:24.998Z,95310.78
2022-08-03T10:01:25.574Z,95315.09
2022-08-03T10:02:24.994Z,95308.90
2022-08-03T10:03:24.985Z,95316.89
2022-08-03T10:04:24.982Z,95314.00
2022-08-03T10:05:25.003Z,95307.17
2022-08-03T10:06:28.819Z,95310.88
2022-08-03T10:07:24.940Z,95310.61
2022-08-03T10:08:24.946Z,95308.81
2022-08-03T10:09:24.918Z,95310.11
2022-08-03T10:10:30.971Z,95308.44
2022-08-03T10:11:24.899Z,95312.67
2022-08-03T10:12:24.886Z,95312.94
2022-08-03T10:13:24.890Z,95315.64
2022-08-03T10:14:24.867Z,95310.45
2022-08-03T10:16:23.399Z,95310.63
2022-08-03T10:16:25.889Z,95305.72
2022-08-03T10:17:24.853Z,95308.22
2022-08-03T10:18:24.830Z,95305.83
2022-08-03T10:19:24.819Z,95310.23
2022-08-03T10:20:24.823Z,95303.98
2022-08-03T10:21:24.810Z,95305.62
2022-08-03T10:22:24.808Z,95306.10
2022-08-03T10:23:24.803Z,95303.47
2022-08-03T10:24:24.785Z,95305.91
2022-08-03T10:25:24.772Z,95300.50
2022-08-03T10:26:24.767Z,95304.00
2022-08-03T10:27:24.768Z,95302.59
2022-08-03T10:28:24.770Z,95300.97
2022-08-03T10:29:24.748Z,95299.57
2022-08-03T10:30:26.214Z,95295.55
2022-08-03T10:31:24.734Z,95297.28
2022-08-03T10:32:24.703Z,95297.41
2022-08-03T10:33:50.158Z,95295.56
2022-08-03T10:34:24.701Z,95297.22
2022-08-03T10:35:24.713Z,95296.80
2022-08-03T10:36:24.678Z,95296.27
2022-08-03T10:37:24.659Z,95293.20
2022-08-03T10:38:24.648Z,95293.38
2022-08-03T10:39:24.660Z,95292.03
2022-08-03T10:40:47.534Z,95292.41
2022-08-03T10:41:24.631Z,95288.94
2022-08-03T10:42:24.625Z,95288.44
2022-08-03T10:43:24.623Z,95289.05
2022-08-03T10:44:24.619Z,95284.22
2022-08-03T10:45:24.593Z,95282.91
2022-08-03T10:46:24.583Z,95283.34
2022-08-03T10:47:24.573Z,95285.22
2022-08-03T10:48:24.568Z,95280.16
2022-08-03T10:49:34.008Z,95284.06
2022-08-03T10:50:24.546Z,95284.75
2022-08-03T10:51:24.557Z,95284.80
2022-08-03T10:52:31.446Z,95285.36
2022-08-03T10:53:24.527Z,95282.95
2022-08-03T10:54:24.508Z,95278.77
2022-08-03T10:55:24.522Z,95283.12
2022-08-03T10:56:41.576Z,95284.00
2022-08-03T10:57:24.634Z,95278.92
2022-08-03T10:58:30.365Z,95283.02
2022-08-03T10:59:27.912Z,95279.63
2022-08-03T11:00:24.543Z,95284.12
2022-08-03T11:01:24.500Z,95286.97
2022-08-03T11:02:24.442Z,95282.69
2022-08-03T11:03:24.433Z,95283.81
2022-08-03T11:04:24.433Z,95281.36
2022-08-03T11:05:24.412Z,95278.48
2022-08-03T11:06:24.407Z,95276.81
2022-08-03T11:07:24.394Z,95281.22
2022-08-03T11:08:24.385Z,95281.12
2022-08-03T11:09:24.374Z,95280.26
2022-08-03T11:10:24.399Z,95274.31
2022-08-03T11:11:24.357Z,95276.23
2022-08-03T11:12:30.017Z,95275.70
2022-08-03T11:13:24.350Z,95275.52
2022-08-03T11:14:24.346Z,95276.40
2022-08-03T11:15:24.340Z,95271.50
2022-08-03T11:16:24.341Z,95276.86
2022-08-03T11:17:24.307Z,95276.84
2022-08-03T11:18:26.886Z,95273.78
2022-08-03T11:19:24.290Z,95274.53
2022-08-03T11:20:24.270Z,95270.91
2022-08-03T11:21:27.685Z,95269.23
2022-08-03T11:22:24.284Z,95277.19
2022-08-03T11:24:04.913Z,95272.47
2022-08-03T11:24:24.246Z,95273.70
2022-08-03T11:25:54.027Z,95269.33
2022-08-03T11:26:24.220Z,95270.16
2022-08-03T11:27:24.214Z,95273.30
2022-08-03T11:28:24.219Z,95265.52
2022-08-03T11:29:24.208Z,95272.03
2022-08-03T11:30:25.896Z,95264.78
2022-08-03T11:31:49.796Z,95273.25
2022-08-03T11:32:24.179Z,95265.39
2022-08-03T11:33:24.157Z,95269.66
2022-08-03T11:34:24.167Z,95266.48
2022-08-03T11:35:24.146Z,95261.06
2022-08-03T11:36:32.507Z,95264.98
2022-08-03T11:37:27.598Z,95267.76
2022-08-03T11:38:24.122Z,95260.95
2022-08-03T11:39:24.121Z,95261.95
2022-08-03T11:40:24.114Z,95261.55
2022-08-03T11:41:24.103Z,95261.47
2022-08-03T11:42:24.091Z,95263.17
2022-08-03T11:43:26.689Z,95260.91
2022-08-03T11:44:24.062Z,95260.98
2022-08-03T11:45:24.067Z,95260.73